Time;durP1;ratioP1;P1;durP2;ratioP2;P2;SDS_P1;SDS_P2;PMS_P1;PMS_P2;Temp;Humidity;BMP_temperature;BMP_pressure;BME280_temperature;BME280_humidity;BME280_pressure;Samples;Min_cycle;Max_cycle;Signal;HPM_P1;HPM_P2
2021/12/18 00:01:37;;;;;;;6.80;2.40;;;;;;;2.95;89.26;101692.38;1678465;85;25646;-71
2021/12/18 00:04:04;;;;;;;8.03;2.05;;;;;;;2.95;89.29;101700.91;1678544;85;25401;-71
2021/12/18 00:06:31;;;;;;;12.13;4.15;;;;;;;2.96;89.32;101713.22;1658731;85;25670;-71
2021/12/18 00:08:59;;;;;;;7.95;2.27;;;;;;;2.97;89.42;101714.87;1678148;85;25403;-70
2021/12/18 00:11:26;;;;;;;8.15;2.33;;;;;;;2.98;89.46;101717.32;1753319;81;27464;-71
2021/12/18 00:13:53;;;;;;;7.00;2.35;;;;;;;2.99;89.45;101713.59;1734314;81;25582;-71
2021/12/18 00:16:20;;;;;;;8.45;2.10;;;;;;;3.01;89.54;101705.88;1717115;83;25384;-71
2021/12/18 00:18:49;;;;;;;10.43;2.45;;;;;;;3.02;89.68;101685.61;1750101;81;26004;-72
2021/12/18 00:21:18;;;;;;;6.22;2.00;;;;;;;3.06;89.62;101681.97;1706913;84;25407;-72
2021/12/18 00:23:44;;;;;;;6.17;2.30;;;;;;;3.06;89.54;101681.97;1707212;83;28190;-75
2021/12/18 00:26:10;;;;;;;8.08;2.90;;;;;;;3.07;89.34;101684.95;1707680;83;26049;-75
2021/12/18 00:28:37;;;;;;;7.85;2.27;;;;;;;3.06;89.26;101685.44;1707246;83;25396;-75
2021/12/18 00:31:04;;;;;;;7.08;2.00;;;;;;;3.06;89.21;101686.78;1707299;83;25543;-75
2021/12/18 00:33:31;;;;;;;8.95;2.45;;;;;;;3.07;89.31;101705.00;1743024;82;25427;-75
2021/12/18 00:35:58;;;;;;;12.37;2.72;;;;;;;3.07;89.36;101711.68;1742949;81;27449;-75
2021/12/18 00:38:29;;;;;;;10.43;2.72;;;;;;;3.07;89.40;101719.70;1706880;84;25530;-74
2021/12/18 00:41:11;;;;;;;10.45;3.02;;;;;;;3.08;89.41;101719.98;1706793;83;25569;-75
2021/12/18 00:43:25;;;;;;;11.97;2.72;;;;;;;3.07;89.25;101727.19;1704107;83;25650;-73
2021/12/18 00:45:51;;;;;;;6.03;2.20;;;;;;;3.06;89.06;101728.75;1706651;83;25409;-74
2021/12/18 00:48:18;;;;;;;9.50;2.52;;;;;;;3.05;89.10;101732.45;1707023;84;27482;-75
2021/12/18 00:50:47;;;;;;;5.70;2.45;;;;;;;3.04;89.08;101737.52;1706977;84;25400;-75
2021/12/18 00:53:14;;;;;;;7.30;2.50;;;;;;;3.06;89.14;101750.14;1698718;83;25412;-75
2021/12/18 00:55:41;;;;;;;6.65;2.65;;;;;;;3.06;89.24;101761.64;1678482;85;26033;-74
2021/12/18 00:58:10;;;;;;;8.20;2.45;;;;;;;3.07;89.19;101768.63;1658938;85;25512;-75
2021/12/18 01:00:39;;;;;;;6.35;2.70;;;;;;;3.09;89.28;101757.72;1743300;81;28024;-75
2021/12/18 01:03:14;;;;;;;9.68;2.58;;;;;;;3.10;89.16;101751.31;1743020;82;25400;-74
2021/12/18 01:05:36;;;;;;;6.72;2.35;;;;;;;3.10;89.11;101744.63;1706156;84;25443;-74
2021/12/18 01:08:02;;;;;;;9.75;2.62;;;;;;;3.10;89.04;101740.62;1706865;84;25485;-74
2021/12/18 01:10:57;;;;;;;7.17;2.98;;;;;;;3.11;89.16;101745.75;1706953;84;25636;-74
2021/12/18 01:13:10;;;;;;;8.43;2.70;;;;;;;3.12;89.09;101749.26;1703306;83;28147;-75
2021/12/18 01:15:40;;;;;;;9.40;2.55;;;;;;;3.14;89.10;101751.18;1706653;83;25767;-74
2021/12/18 01:23:34;;;;;;;9.40;2.50;;;;;;;3.16;88.84;101739.73;1707093;84;25710;-73
2021/12/18 01:26:03;;;;;;;10.35;2.80;;;;;;;3.15;88.76;101746.11;1706929;84;27476;-73
2021/12/18 01:28:31;;;;;;;13.62;3.35;;;;;;;3.15;88.68;101742.94;1707082;84;25436;-73
2021/12/18 01:30:57;;;;;;;13.35;3.80;;;;;;;3.14;88.63;101737.28;1698520;83;25417;-73
2021/12/18 01:33:24;;;;;;;8.98;3.12;;;;;;;3.15;88.64;101731.41;1678518;85;25535;-73
2021/12/18 01:35:53;;;;;;;8.05;3.42;;;;;;;3.15;88.66;101734.08;1678595;85;25552;-73
2021/12/18 01:38:23;;;;;;;12.63;4.22;;;;;;;3.15;88.57;101730.91;1678480;85;28151;-73
2021/12/18 01:40:50;;;;;;;8.78;4.03;;;;;;;3.14;88.49;101730.59;1678549;85;25557;-73
2021/12/18 01:46:32;;;;;;;9.93;3.72;;;;;;;3.10;88.34;101731.27;1678592;84;25652;-72
2021/12/18 01:51:44;;;;;;;6.70;3.72;;;;;;;3.04;88.15;101737.52;1678653;85;27497;-74
2021/12/18 01:53:56;;;;;;;14.05;4.15;;;;;;;3.02;88.28;101743.09;1675545;85;25795;-73
2021/12/18 01:56:25;;;;;;;12.15;3.67;;;;;;;3.02;88.36;101743.61;1679347;85;25553;-73
2021/12/18 01:58:53;;;;;;;10.35;3.85;;;;;;;3.00;88.36;101742.50;1743289;81;25516;-74
2021/12/18 02:01:21;;;;;;;13.28;3.67;;;;;;;2.97;88.19;101729.57;1707332;84;25646;-74
2021/12/18 02:03:48;;;;;;;12.53;4.35;;;;;;;2.94;88.20;101743.38;1707067;84;27525;-74
2021/12/18 02:06:15;;;;;;;14.18;4.80;;;;;;;2.91;88.26;101755.84;1706951;84;25606;-73
2021/12/18 02:08:44;;;;;;;14.55;4.45;;;;;;;2.89;88.31;101760.06;1706995;84;25555;-73
2021/12/18 02:11:22;;;;;;;11.00;4.62;;;;;;;2.87;88.29;101769.36;1707126;84;25610;-73
2021/12/18 02:19:50;;;;;;;13.15;4.83;;;;;;;2.74;87.99;101754.27;1713905;83;25480;-74
2021/12/18 02:22:03;;;;;;;13.75;5.67;;;;;;;2.68;88.01;101752.48;1747539;81;25565;-72
2021/12/18 02:24:32;;;;;;;14.35;4.33;;;;;;;2.63;88.06;101755.81;1750973;81;25604;-73
2021/12/18 02:26:59;;;;;;;8.18;4.08;;;;;;;2.58;88.03;101749.78;1750342;82;25388;-73
2021/12/18 02:29:30;;;;;;;14.38;4.25;;;;;;;2.55;87.99;101754.75;1707013;84;27486;-73
2021/12/18 02:31:55;;;;;;;11.15;4.42;;;;;;;2.51;88.08;101739.69;1711401;83;25548;-73
2021/12/18 02:34:27;;;;;;;16.27;5.15;;;;;;;2.46;87.96;101739.52;1711713;83;25618;-73
2021/12/18 02:36:50;;;;;;;15.28;5.17;;;;;;;2.41;87.90;101728.16;1711109;83;25418;-73
2021/12/18 02:39:35;;;;;;;12.03;4.65;;;;;;;2.36;87.73;101733.33;1711507;83;25446;-73
2021/12/18 02:44:39;;;;;;;13.15;5.22;;;;;;;2.22;87.51;101728.63;1712181;83;25949;-72
2021/12/18 02:47:05;;;;;;;9.53;4.30;;;;;;;2.16;87.27;101734.02;1712981;83;25489;-73
2021/12/18 02:49:31;;;;;;;12.40;4.53;;;;;;;2.08;87.34;101733.78;1748473;81;25527;-73
2021/12/18 02:51:58;;;;;;;15.45;4.78;;;;;;;2.01;87.37;101741.83;1711667;83;25604;-73
2021/12/18 02:54:26;;;;;;;10.40;4.87;;;;;;;1.95;87.38;101744.55;1711895;83;27582;-73
2021/12/18 02:56:53;;;;;;;23.52;8.48;;;;;;;1.90;87.59;101745.70;1748041;81;25419;-73
2021/12/18 02:59:20;;;;;;;10.50;4.28;;;;;;;1.84;87.86;101740.20;1711320;83;25455;-73
2021/12/18 03:01:46;;;;;;;13.72;4.30;;;;;;;1.79;87.99;101740.03;1748156;81;25494;-73
2021/12/18 03:04:23;;;;;;;12.73;4.67;;;;;;;1.78;88.19;101745.05;1711879;83;25406;-73
2021/12/18 03:06:53;;;;;;;9.95;3.60;;;;;;;1.77;88.32;101752.77;1710014;83;28257;-73
2021/12/18 03:25:35;;;;;;;11.40;5.12;;;;;;;1.72;88.86;101734.41;1622629;88;25607;-72
2021/12/18 03:28:04;;;;;;;11.80;4.58;;;;;;;1.71;88.92;101737.61;1604610;88;26062;-74
2021/12/18 03:30:30;;;;;;;19.32;6.20;;;;;;;1.73;88.94;101726.72;1604523;89;25690;-73
2021/12/18 03:32:58;;;;;;;15.25;5.58;;;;;;;1.74;89.01;101726.52;1604450;89;28084;-73
2021/12/18 03:35:25;;;;;;;16.37;5.33;;;;;;;1.74;88.95;101731.01;1604355;89;25703;-73
2021/12/18 03:37:53;;;;;;;13.72;5.30;;;;;;;1.73;88.90;101724.06;1583355;89;25672;-73
2021/12/18 03:40:24;;;;;;;12.90;5.72;;;;;;;1.74;88.92;101731.01;1583122;89;26020;-73
2021/12/18 03:42:52;;;;;;;15.88;6.03;;;;;;;1.75;89.01;101730.80;1604453;89;25465;-73
2021/12/18 03:45:20;;;;;;;16.23;6.17;;;;;;;1.77;88.99;101735.42;1604428;89;28113;-73
2021/12/18 03:47:50;;;;;;;13.37;5.47;;;;;;;1.78;88.92;101741.57;1604572;89;25619;-71
2021/12/18 03:50:17;;;;;;;6.80;3.90;;;;;;;1.78;88.89;101740.23;1583398;89;34106;-74
2021/12/18 03:52:44;;;;;;;10.48;4.20;;;;;;;1.79;88.83;101736.55;1604475;89;25656;-74
2021/12/18 03:55:13;;;;;;;10.95;4.17;;;;;;;1.81;88.72;101747.82;1696174;84;25618;-74
2021/12/18 03:57:40;;;;;;;8.18;3.60;;;;;;;1.81;88.68;101747.82;1683192;85;27435;-74
2021/12/18 04:00:11;;;;;;;12.30;3.90;;;;;;;1.82;88.65;101752.94;1659658;85;25762;-73
2021/12/18 04:02:38;;;;;;;12.78;4.25;;;;;;;1.83;88.67;101751.08;1737256;81;25425;-73
2021/12/18 04:05:05;;;;;;;8.83;3.40;;;;;;;1.85;88.68;101749.82;1747971;82;25580;-73
2021/12/18 04:07:40;;;;;;;8.68;3.75;;;;;;;1.89;88.71;101755.57;1737705;82;25466;-73
2021/12/18 04:10:00;;;;;;;11.75;4.12;;;;;;;1.90;88.59;101753.19;1710804;83;27541;-72
2021/12/18 04:12:27;;;;;;;10.13;3.60;;;;;;;1.93;88.58;101753.29;1711722;83;25441;-72
2021/12/18 04:14:54;;;;;;;8.23;4.03;;;;;;;1.92;88.42;101749.78;1711078;83;25402;-72
2021/12/18 04:17:20;;;;;;;12.80;4.03;;;;;;;1.95;88.42;101752.55;1711652;83;25965;-72
2021/12/18 04:19:47;;;;;;;10.10;4.05;;;;;;;1.97;88.44;101755.81;1748088;80;25590;-72
2021/12/18 04:22:13;;;;;;;10.40;3.65;;;;;;;1.98;88.41;101753.45;1711755;83;28031;-73
2021/12/18 04:24:40;;;;;;;8.30;4.00;;;;;;;2.00;88.45;101746.05;1711687;83;25515;-73
2021/12/18 04:27:07;;;;;;;11.35;4.17;;;;;;;2.02;88.46;101750.65;1711816;83;25417;-73
2021/12/18 04:29:33;;;;;;;10.55;4.00;;;;;;;2.04;88.41;101740.56;1711675;83;25621;-73
2021/12/18 04:32:00;;;;;;;9.88;4.87;;;;;;;2.06;88.38;101741.20;1711879;83;25451;-73
2021/12/18 04:34:27;;;;;;;10.00;4.95;;;;;;;2.08;88.27;101731.61;1711200;83;27603;-73
2021/12/18 04:36:53;;;;;;;10.90;4.55;;;;;;;2.09;88.32;101727.91;1712708;80;25761;-73
2021/12/18 04:39:20;;;;;;;13.68;4.67;;;;;;;2.10;88.27;101727.70;1712135;83;25457;-73
2021/12/18 04:41:57;;;;;;;12.58;5.22;;;;;;;2.12;88.26;101718.95;1712001;83;26241;-73
2021/12/18 04:44:18;;;;;;;9.58;4.30;;;;;;;2.15;88.32;101715.85;1710945;83;25584;-73
2021/12/18 04:46:45;;;;;;;12.25;4.80;;;;;;;2.16;88.18;101721.50;1747742;81;27457;-73
2021/12/18 04:49:13;;;;;;;10.18;4.55;;;;;;;2.18;88.18;101717.25;1711405;83;25919;-73
2021/12/18 04:51:39;;;;;;;12.43;4.33;;;;;;;2.19;88.26;101713.03;1748226;81;25482;-73
2021/12/18 04:54:06;;;;;;;9.75;4.33;;;;;;;2.20;88.29;101710.68;1711689;83;25498;-73
2021/12/18 04:56:32;;;;;;;12.45;4.83;;;;;;;2.21;88.17;101713.66;1688161;83;25637;-73
2021/12/18 04:58:59;;;;;;;12.85;4.70;;;;;;;2.20;88.07;101716.02;1711624;83;27523;-73
2021/12/18 05:01:25;;;;;;;12.58;4.10;;;;;;;2.20;88.06;101714.69;1687993;83;25473;-73
2021/12/18 05:03:52;;;;;;;12.30;4.85;;;;;;;2.20;88.05;101713.88;1737413;82;25539;-73
2021/12/18 05:06:19;;;;;;;8.35;4.08;;;;;;;2.19;88.00;101726.38;1747876;81;25640;-73
2021/12/18 05:08:45;;;;;;;9.68;4.35;;;;;;;2.20;88.00;101725.89;1747957;82;25389;-73
2021/12/18 05:11:12;;;;;;;8.23;4.50;;;;;;;2.18;87.96;101718.09;1711745;83;28032;-73
2021/12/18 05:13:39;;;;;;;14.68;4.75;;;;;;;2.19;88.00;101717.05;1711710;83;25522;-73
2021/12/18 05:16:05;;;;;;;11.55;4.70;;;;;;;2.19;88.04;101719.71;1711731;83;25560;-73
2021/12/18 05:18:32;;;;;;;14.03;5.37;;;;;;;2.20;88.13;101713.88;1711169;83;26085;-73
2021/12/18 05:20:58;;;;;;;14.05;6.35;;;;;;;2.20;88.02;101705.87;1711684;83;25621;-73
2021/12/18 05:23:25;;;;;;;19.05;6.78;;;;;;;2.18;88.09;101700.74;1711758;83;27468;-73
2021/12/18 05:25:52;;;;;;;14.73;6.55;;;;;;;2.18;88.20;101710.08;1711465;83;25757;-73
2021/12/18 05:28:18;;;;;;;12.33;6.42;;;;;;;2.19;88.21;101696.21;1711677;83;25377;-73
2021/12/18 05:30:45;;;;;;;13.60;6.50;;;;;;;2.19;88.26;101699.69;1711712;83;26237;-73
2021/12/18 05:33:12;;;;;;;14.70;5.97;;;;;;;2.19;88.29;101697.02;1711840;83;25546;-73
2021/12/18 05:35:39;;;;;;;16.73;7.22;;;;;;;2.18;88.30;101695.41;1748031;82;27470;-73
2021/12/18 05:38:06;;;;;;;14.58;6.37;;;;;;;2.18;88.40;101691.40;1737343;82;26313;-73
2021/12/18 05:40:37;;;;;;;21.15;7.08;;;;;;;2.18;88.43;101701.23;1711703;83;26978;-73
2021/12/18 05:43:06;;;;;;;18.48;6.67;;;;;;;2.18;88.51;101709.25;1747864;81;25483;-73
2021/12/18 05:45:32;;;;;;;18.48;6.67;;;;;;;2.17;88.63;101719.64;1747982;81;25548;-73
2021/12/18 05:47:59;;;;;;;13.95;5.70;;;;;;;2.16;88.63;101725.51;1712311;83;27480;-73
2021/12/18 05:50:28;;;;;;;14.35;5.80;;;;;;;2.16;88.68;101726.84;1712946;83;25577;-73
2021/12/18 05:52:56;;;;;;;14.98;6.58;;;;;;;2.16;88.81;101718.84;1711695;83;25464;-73
2021/12/18 05:55:24;;;;;;;13.55;5.85;;;;;;;2.18;88.89;101710.58;1711742;83;25537;-73
2021/12/18 05:57:51;;;;;;;15.23;5.53;;;;;;;2.18;88.98;101719.43;1748158;82;25421;-73
2021/12/18 06:00:20;;;;;;;16.20;6.80;;;;;;;2.18;89.01;101714.59;1747916;82;27515;-73
2021/12/18 06:02:48;;;;;;;18.50;7.20;;;;;;;2.20;89.05;101720.02;1748146;81;25653;-73
2021/12/18 06:05:15;;;;;;;12.88;5.70;;;;;;;2.20;89.07;101718.69;1711723;83;25446;-73
2021/12/18 06:07:55;;;;;;;18.77;5.87;;;;;;;2.21;89.01;101725.67;1747906;81;25649;-74
2021/12/18 06:10:28;;;;;;;16.02;6.65;;;;;;;2.22;89.04;101721.95;1747960;81;25538;-73
2021/12/18 06:12:57;;;;;;;12.80;6.72;;;;;;;2.23;89.11;101719.59;1747958;82;27477;-73
2021/12/18 06:15:24;;;;;;;15.85;6.37;;;;;;;2.23;89.14;101712.92;1711924;83;25414;-73
2021/12/18 06:17:53;;;;;;;14.50;6.67;;;;;;;2.24;89.06;101719.06;1749603;81;25531;-73
2021/12/18 06:20:19;;;;;;;11.20;6.40;;;;;;;2.24;89.10;101725.22;1712836;83;25661;-72
2021/12/18 06:22:46;;;;;;;11.18;6.40;;;;;;;2.26;89.12;101721.52;1712697;83;25167;-72
2021/12/18 06:25:12;;;;;;;18.60;7.58;;;;;;;2.26;89.09;101723.66;1712617;83;27451;-72
2021/12/18 06:27:39;;;;;;;23.30;9.63;;;;;;;2.27;89.15;101718.63;1712743;83;25597;-72
2021/12/18 06:30:09;;;;;;;16.57;6.90;;;;;;;2.29;89.11;101721.09;1748071;82;25471;-72
2021/12/18 06:32:37;;;;;;;12.35;6.85;;;;;;;2.28;89.04;101718.92;1737977;82;25661;-72
2021/12/18 06:35:05;;;;;;;14.63;8.05;;;;;;;2.28;89.02;101718.11;1748063;82;25369;-72
2021/12/18 06:37:32;;;;;;;18.35;8.00;;;;;;;2.29;89.10;101720.56;1748012;82;27497;-73
2021/12/18 06:40:00;;;;;;;14.38;7.65;;;;;;;2.29;89.10;101715.22;1747940;82;25447;-73
2021/12/18 06:42:28;;;;;;;16.70;7.45;;;;;;;2.31;89.07;101707.00;1748053;82;25317;-73
2021/12/18 06:44:55;;;;;;;16.80;7.87;;;;;;;2.31;89.12;101709.14;1711809;83;25639;-72
2021/12/18 06:47:22;;;;;;;16.67;7.90;;;;;;;2.32;89.01;101696.62;1688547;83;25628;-73
2021/12/18 06:49:48;;;;;;;13.38;7.00;;;;;;;2.30;89.00;101698.18;1748122;82;28014;-74
2021/12/18 06:52:15;;;;;;;12.23;6.87;;;;;;;2.30;88.98;101701.34;1711756;83;25833;-73
2021/12/18 06:54:41;;;;;;;15.72;7.45;;;;;;;2.28;88.94;101694.89;1711892;83;25530;-72
2021/12/18 06:57:08;;;;;;;18.42;6.78;;;;;;;2.28;89.06;101696.22;1711771;83;25575;-73
2021/12/18 06:59:34;;;;;;;17.73;7.35;;;;;;;2.28;89.08;101694.89;1711467;83;25564;-72
2021/12/18 07:02:01;;;;;;;15.83;6.75;;;;;;;2.29;89.12;101693.05;1711634;83;27520;-73
2021/12/18 07:04:28;;;;;;;13.53;6.95;;;;;;;2.32;89.20;101693.95;1748334;82;25617;-73
2021/12/18 07:06:55;;;;;;;16.65;6.28;;;;;;;2.32;89.17;101691.28;1711865;83;25571;-73
2021/12/18 07:09:22;;;;;;;16.20;6.72;;;;;;;2.29;88.97;101692.53;1748070;82;25481;-73
2021/12/18 07:11:49;;;;;;;13.20;6.17;;;;;;;2.29;89.06;101683.18;1711829;83;25565;-73
2021/12/18 07:14:16;;;;;;;15.72;7.00;;;;;;;2.28;89.11;101682.06;1711786;83;27315;-73
2021/12/18 07:16:42;;;;;;;15.98;6.20;;;;;;;2.30;89.24;101682.16;1711742;83;25468;-73
2021/12/18 07:19:09;;;;;;;12.33;5.97;;;;;;;2.32;89.23;101674.73;1681535;84;25641;-73
2021/12/18 07:21:35;;;;;;;16.70;6.53;;;;;;;2.34;89.33;101669.18;1745348;82;25475;-73
2021/12/18 07:24:03;;;;;;;21.20;6.78;;;;;;;2.34;89.23;101670.52;1743024;81;25443;-74
2021/12/18 07:26:32;;;;;;;11.88;6.00;;;;;;;2.32;89.14;101676.59;1732902;82;27341;-72
2021/12/18 07:29:00;;;;;;;12.58;5.92;;;;;;;2.31;89.14;101675.77;1707297;83;25803;-72
2021/12/18 07:31:27;;;;;;;16.48;6.55;;;;;;;2.31;89.18;101674.95;1707245;84;25455;-72
2021/12/18 07:33:55;;;;;;;13.80;6.10;;;;;;;2.30;89.26;101670.64;1707050;84;25609;-72
2021/12/18 07:36:21;;;;;;;13.08;5.83;;;;;;;2.31;89.33;101674.42;1706988;84;25392;-73
2021/12/18 07:38:48;;;;;;;16.40;7.90;;;;;;;2.32;89.40;101677.94;1706963;84;28218;-73
2021/12/18 07:41:14;;;;;;;14.93;6.47;;;;;;;2.32;89.60;101677.41;1706875;83;25587;-73
2021/12/18 07:43:41;;;;;;;15.28;7.20;;;;;;;2.35;89.58;101686.81;1686506;84;25416;-73
2021/12/18 07:46:07;;;;;;;15.95;7.00;;;;;;;2.37;89.55;101698.93;1706229;84;25606;-73
2021/12/18 07:48:34;;;;;;;22.00;8.83;;;;;;;2.40;89.52;101697.66;1686201;84;25544;-73
2021/12/18 07:51:00;;;;;;;16.75;7.70;;;;;;;2.40;89.43;101702.50;1686459;84;27582;-73
2021/12/18 07:53:27;;;;;;;19.55;7.92;;;;;;;2.39;89.46;101711.54;1707171;84;25746;-74
2021/12/18 07:55:54;;;;;;;15.13;7.58;;;;;;;2.39;89.55;101715.55;1707097;84;25407;-73
2021/12/18 07:58:20;;;;;;;15.15;8.43;;;;;;;2.41;89.62;101708.65;1706935;84;25457;-73
2021/12/18 08:00:48;;;;;;;14.83;8.43;;;;;;;2.43;89.63;101712.75;1706958;84;25578;-73
2021/12/18 08:03:17;;;;;;;20.80;9.75;;;;;;;2.45;89.65;101706.36;1706937;84;27558;-73
2021/12/18 08:05:43;;;;;;;23.35;11.60;;;;;;;2.45;89.53;101705.83;1706856;84;25586;-73
2021/12/18 08:08:10;;;;;;;18.17;10.15;;;;;;;2.43;89.49;101698.06;1696115;84;25398;-73
2021/12/18 08:10:36;;;;;;;27.17;13.38;;;;;;;2.43;89.50;101693.22;1701397;83;25645;-75
2021/12/18 08:13:03;;;;;;;32.50;15.88;;;;;;;2.45;89.46;101693.00;1698198;84;25651;-73
2021/12/18 08:15:31;;;;;;;44.95;18.60;;;;;;;2.43;89.54;101694.05;1691692;84;28068;-73
2021/12/18 08:17:58;;;;;;;51.77;21.02;;;;;;;2.46;89.61;101686.11;1691561;84;25573;-73
2021/12/18 08:20:26;;;;;;;27.82;13.50;;;;;;;2.48;89.72;101685.36;1691574;83;25522;-73
2021/12/18 08:22:53;;;;;;;39.38;16.70;;;;;;;2.51;89.63;101690.27;1706951;83;25730;-73
2021/12/18 08:25:20;;;;;;;23.57;10.93;;;;;;;2.53;89.63;101689.52;1702542;83;25482;-73
2021/12/18 08:27:46;;;;;;;21.35;12.23;;;;;;;2.52;89.42;101687.91;1701526;83;27581;-73
2021/12/18 08:30:14;;;;;;;26.30;11.43;;;;;;;2.50;89.20;101688.63;1719340;82;25435;-72
2021/12/18 08:32:43;;;;;;;22.67;10.88;;;;;;;2.50;89.34;101679.80;1758510;80;25637;-72
2021/12/18 08:35:10;;;;;;;23.75;11.95;;;;;;;2.49;89.40;101677.66;1756903;79;26028;-72
2021/12/18 08:37:37;;;;;;;23.20;12.15;;;;;;;2.49;89.32;101674.18;1764729;80;25644;-73
2021/12/18 08:40:05;;;;;;;24.43;14.13;;;;;;;2.48;89.33;101664.52;1694165;83;28174;-72
2021/12/18 08:42:32;;;;;;;22.95;12.35;;;;;;;2.48;89.36;101665.86;1747627;80;25814;-74
2021/12/18 08:44:58;;;;;;;23.83;13.68;;;;;;;2.43;89.33;101665.17;1763702;80;25644;-73
2021/12/18 08:47:25;;;;;;;22.35;14.10;;;;;;;2.41;89.47;101669.92;1693518;83;25718;-72
2021/12/18 08:49:54;;;;;;;28.23;14.78;;;;;;;2.41;89.71;101664.59;1773083;80;25586;-73
2021/12/18 08:52:21;;;;;;;29.65;16.75;;;;;;;2.41;89.68;101656.05;1768634;80;27623;-73
2021/12/18 08:54:49;;;;;;;35.35;19.65;;;;;;;2.40;89.74;101661.61;1769462;80;25701;-72
2021/12/18 08:57:16;;;;;;;33.45;18.57;;;;;;;2.43;89.96;101655.83;1773234;80;25832;-73
2021/12/18 08:59:42;;;;;;;29.80;17.65;;;;;;;2.44;89.81;101660.14;1742814;81;25693;-72
2021/12/18 09:02:13;;;;;;;29.00;15.95;;;;;;;2.42;89.84;101653.69;1747968;82;25467;-72
2021/12/18 09:04:39;;;;;;;31.75;17.82;;;;;;;2.38;89.55;101642.32;1748268;81;27471;-72
2021/12/18 09:07:08;;;;;;;31.07;17.90;;;;;;;2.38;89.67;101636.98;1748141;82;25612;-73
2021/12/18 09:09:35;;;;;;;32.33;17.50;;;;;;;2.37;89.79;101632.17;1747997;81;25509;-73
2021/12/18 09:12:02;;;;;;;37.73;19.98;;;;;;;2.36;89.79;101635.86;1737641;82;25509;-72
2021/12/18 09:14:28;;;;;;;37.70;19.42;;;;;;;2.34;89.76;101639.28;1748041;82;25462;-72
2021/12/18 09:16:57;;;;;;;41.60;20.80;;;;;;;2.34;89.91;101635.27;1747982;81;25906;-73
2021/12/18 09:19:25;;;;;;;36.75;19.40;;;;;;;2.35;90.09;101634.25;1737688;82;25815;-74
2021/12/18 09:21:51;;;;;;;36.35;19.37;;;;;;;2.35;89.92;101630.24;1746461;81;25572;-73
2021/12/18 09:24:18;;;;;;;45.23;22.60;;;;;;;2.33;89.96;101626.95;1742863;82;25524;-73
2021/12/18 09:26:45;;;;;;;40.45;21.80;;;;;;;2.31;90.03;101617.02;1743043;81;25558;-72
2021/12/18 09:29:12;;;;;;;35.92;19.48;;;;;;;2.31;90.06;101618.35;1742966;82;27547;-73
2021/12/18 09:31:38;;;;;;;36.63;20.02;;;;;;;2.30;90.06;101615.90;1742890;82;25620;-72
2021/12/18 09:34:05;;;;;;;35.20;19.92;;;;;;;2.30;90.20;101616.73;1742823;82;25556;-71
2021/12/18 09:36:32;;;;;;;31.23;18.32;;;;;;;2.30;90.48;101603.39;1742924;82;26216;-71
2021/12/18 09:38:59;;;;;;;42.67;22.70;;;;;;;2.30;90.43;101595.38;1742978;82;25539;-71
2021/12/18 09:41:25;;;;;;;40.15;21.27;;;;;;;2.31;90.52;101598.86;1742921;81;28272;-71
2021/12/18 09:43:52;;;;;;;37.53;20.10;;;;;;;2.32;90.60;101589.81;1742869;82;25376;-72
2021/12/18 09:46:18;;;;;;;36.48;20.40;;;;;;;2.34;90.67;101577.05;1742882;82;25439;-70
2021/12/18 09:48:46;;;;;;;39.95;21.17;;;;;;;2.40;90.94;101576.14;1742886;81;25581;-71
2021/12/18 09:51:25;;;;;;;39.20;19.75;;;;;;;2.40;90.82;101564.97;1742877;82;25440;-71
2021/12/18 09:53:53;;;;;;;36.68;20.77;;;;;;;2.41;90.84;101565.77;1742875;81;28358;-70
2021/12/18 09:56:21;;;;;;;44.18;22.70;;;;;;;2.39;90.91;101555.84;1742788;81;25435;-71
2021/12/18 09:58:49;;;;;;;38.17;21.12;;;;;;;2.39;91.02;101559.84;1742873;82;25552;-70
2021/12/18 10:01:17;;;;;;;42.93;20.35;;;;;;;2.38;91.24;101556.87;1742965;82;25487;-70
2021/12/18 10:03:54;;;;;;;39.83;20.95;;;;;;;2.38;91.36;101559.53;1743142;81;25476;-71
2021/12/18 10:06:44;;;;;;;36.85;19.57;;;;;;;2.42;91.67;101563.41;1743020;82;27487;-71
2021/12/18 10:09:25;;;;;;;39.73;21.07;;;;;;;2.43;91.94;101551.67;1732671;82;25683;-71
2021/12/18 10:11:57;;;;;;;44.80;19.95;;;;;;;2.41;91.79;101547.88;1743092;81;25435;-70
2021/12/18 10:14:43;;;;;;;43.87;21.02;;;;;;;2.39;91.80;101545.16;1742954;81;26826;-71
2021/12/18 10:17:38;;;;;;;39.65;19.00;;;;;;;2.34;91.62;101532.47;1739643;81;25447;-72
2021/12/18 10:20:21;;;;;;;40.40;19.90;;;;;;;2.32;91.69;101537.22;1706799;83;27498;-71
2021/12/18 10:22:52;;;;;;;41.37;19.60;;;;;;;2.31;91.97;101537.44;1713179;82;25436;-70
2021/12/18 10:25:33;;;;;;;35.45;16.85;;;;;;;2.30;92.03;101523.28;1713458;82;25450;-71
2021/12/18 10:28:10;;;;;;;34.50;17.02;;;;;;;2.30;92.04;101519.78;1713419;83;26035;-71
2021/12/18 10:30:33;;;;;;;31.12;16.23;;;;;;;2.22;92.01;101520.38;1713194;82;25453;-71
2021/12/18 10:33:08;;;;;;;31.12;16.57;;;;;;;2.17;92.02;101516.23;1719735;80;28106;-71
2021/12/18 10:36:00;;;;;;;30.10;16.67;;;;;;;2.15;92.29;101508.97;1726056;82;25474;-71
2021/12/18 10:38:51;;;;;;;32.33;16.95;;;;;;;2.12;92.26;101497.39;1687508;84;25469;-70
2021/12/18 10:41:28;;;;;;;33.35;17.80;;;;;;;2.08;92.34;101507.39;1682014;85;25580;-70
2021/12/18 10:44:08;;;;;;;33.40;18.82;;;;;;;2.08;92.46;101503.39;1682037;85;25570;-71
2021/12/18 10:49:31;;;;;;;39.27;21.00;;;;;;;2.09;92.85;101481.82;1649380;86;25577;-71
2021/12/18 10:51:58;;;;;;;38.78;21.10;;;;;;;2.09;92.88;101470.34;1622366;86;25838;-71
2021/12/18 10:54:24;;;;;;;36.65;21.23;;;;;;;2.09;93.11;101473.81;1649857;86;25505;-72
2021/12/18 10:56:55;;;;;;;37.58;21.33;;;;;;;2.10;93.18;101466.11;1618226;88;25719;-71
2021/12/18 10:59:31;;;;;;;40.45;21.40;;;;;;;2.10;93.20;101464.78;1654015;86;27498;-71
2021/12/18 11:02:04;;;;;;;38.58;21.42;;;;;;;2.08;92.99;101458.85;1647782;87;25831;-70
2021/12/18 11:04:35;;;;;;;40.60;22.90;;;;;;;2.10;93.18;101464.78;1618238;88;25645;-70
2021/12/18 11:07:31;;;;;;;48.35;26.68;;;;;;;2.11;93.23;101457.58;1625711;87;26317;-70
2021/12/18 11:10:21;;;;;;;46.02;24.15;;;;;;;2.10;93.18;101453.30;1647833;87;25445;-69
2021/12/18 11:15:26;;;;;;;53.30;26.00;;;;;;;2.08;93.44;101427.32;1618115;88;27335;-70
2021/12/18 11:17:53;;;;;;;59.15;27.87;;;;;;;2.06;93.46;101420.91;1647812;87;25746;-69
2021/12/18 11:20:21;;;;;;;65.50;28.65;;;;;;;2.05;93.57;101415.25;1617563;88;26199;-69
2021/12/18 11:22:53;;;;;;;61.20;27.95;;;;;;;2.02;93.88;101412.50;1604888;89;25649;-69
2021/12/18 11:25:22;;;;;;;60.52;29.02;;;;;;;1.98;93.60;101414.00;1640963;85;27615;-69
2021/12/18 11:27:52;;;;;;;58.10;25.80;;;;;;;1.98;93.70;101414.00;1646270;85;25584;-68
2021/12/18 11:30:19;;;;;;;59.58;26.45;;;;;;;1.97;93.95;101411.02;1680212;85;25539;-68
2021/12/18 11:32:54;;;;;;;54.58;26.60;;;;;;;1.97;94.12;101415.56;1646693;85;25615;-68
2021/12/18 11:35:20;;;;;;;54.33;26.40;;;;;;;1.94;94.04;101415.50;1668190;84;25629;-68
2021/12/18 11:38:15;;;;;;;48.85;25.60;;;;;;;1.94;94.10;101409.33;1683229;85;28156;-69
2021/12/18 11:40:44;;;;;;;45.20;23.62;;;;;;;1.93;94.19;101397.84;1635286;87;25636;-68
2021/12/18 11:43:44;;;;;;;48.77;24.87;;;;;;;1.96;94.48;101394.73;1635681;87;25660;-68
2021/12/18 11:46:34;;;;;;;52.55;24.92;;;;;;;1.96;94.37;101396.57;1598035;89;25591;-67
2021/12/18 11:49:07;;;;;;;47.55;23.15;;;;;;;1.96;94.26;101395.23;1524239;92;25690;-68
2021/12/18 11:51:34;;;;;;;51.08;26.25;;;;;;;1.92;94.58;101395.41;1541248;93;27548;-68
2021/12/18 11:54:06;;;;;;;47.90;24.70;;;;;;;1.89;94.43;101389.17;1538903;92;25507;-69
2021/12/18 11:56:49;;;;;;;46.65;23.77;;;;;;;1.88;94.52;101388.37;1538465;93;25704;-69
2021/12/18 11:59:30;;;;;;;53.05;24.40;;;;;;;1.89;94.53;101386.50;1550529;92;25592;-69
2021/12/18 12:01:57;;;;;;;52.50;26.45;;;;;;;1.91;94.75;101390.59;1540894;91;25482;-71
2021/12/18 12:04:23;;;;;;;51.35;26.85;;;;;;;1.91;95.02;101373.25;1554373;91;27528;-71
2021/12/18 12:06:50;;;;;;;58.98;29.27;;;;;;;1.90;94.72;101363.60;1567934;91;25542;-71
2021/12/18 12:09:35;;;;;;;54.53;27.95;;;;;;;1.91;94.83;101361.24;1566604;91;25649;-71
2021/12/18 12:12:13;;;;;;;59.73;27.07;;;;;;;1.88;94.63;101356.88;1564987;90;25737;-71
2021/12/18 12:14:42;;;;;;;53.78;27.22;;;;;;;1.90;94.77;101356.13;1566767;90;25632;-71